»·PEaware :: N978AP KLAX-KSAN

N978AP :: KLAX-KSAN

FLIGHT INFORMATION

Flight Status: Arrived
Operator: Privately registered:
United States
More flights under this callsign
Pilot: Caleb H. (26682)
Aircraft: CESSNA 172 SKYHAWK
(C172)
More flights by this aircraft type
Origin: KLAX Los Angeles Intl
United States
Destination: KSAN San Diego Intl-Lindbergh
United States
More flights between these airports :: More routes between these airports
Route: +
File this flight plan on PilotEdge
Remarks: cat11
Altitude:
(Current/Filed)
7,500ft
Speed:
(Current/Filed)
0kts
Departed: 13-Jan-20 03:09 PM
Arrived: 13-Jan-20 04:08 PM
Distance/Time
Traveled:
95nm/0:59
Distance/Time
To Go:
Arrived

Flight Plot

Page will automatically refresh every two minutes.


Map Options




Map Legend


Flown Route
Filed Route
Departure Airport
Arrival Airport
Navaid (VOR, NDB)
Fix

Horizontal Profiles

Position Reports

Time Latitude Longitude Heading Altitude Ground
Speed
13-Jan-20 14:48 33.932658 -118.399140 83 111ft 0kts
13-Jan-20 14:49 33.932658 -118.399140 83 111ft 0kts
13-Jan-20 14:50 33.932658 -118.399140 83 111ft 0kts
13-Jan-20 14:51 33.932658 -118.399140 83 111ft 0kts
13-Jan-20 14:52 33.932658 -118.399140 83 111ft 0kts
13-Jan-20 14:53 33.932658 -118.399140 83 111ft 0kts
13-Jan-20 14:54 33.932658 -118.399140 83 111ft 0kts
13-Jan-20 14:55 33.932662 -118.399104 83 110ft 0kts
13-Jan-20 14:56 33.932662 -118.399104 83 110ft 0kts
13-Jan-20 14:57 33.932662 -118.399104 83 110ft 0kts
13-Jan-20 14:58 33.933188 -118.398987 355 109ft 0kts
13-Jan-20 14:59 33.933527 -118.398578 77 108ft 5kts
13-Jan-20 14:59 33.934184 -118.398202 353 108ft 3kts
13-Jan-20 15:01 33.934805 -118.395757 79 105ft 17kts
13-Jan-20 15:02 33.935074 -118.393134 83 101ft 13kts
13-Jan-20 15:02 33.935419 -118.389567 82 100ft 11kts
13-Jan-20 15:04 33.935818 -118.385809 84 98ft 15kts
13-Jan-20 15:04 33.936093 -118.383239 69 95ft 8kts
13-Jan-20 15:05 33.936336 -118.382859 26 95ft 0kts
13-Jan-20 15:07 33.936336 -118.382859 26 95ft 0kts
13-Jan-20 15:07 33.936892 -118.382875 350 95ft 10kts
13-Jan-20 15:08 33.936489 -118.392918 266 253ft 70kts
13-Jan-20 15:09 33.936343 -118.415287 283 960ft 72kts
13-Jan-20 15:10 33.938892 -118.438716 283 1696ft 68kts
13-Jan-20 15:11 33.920772 -118.445800 176 2248ft 92kts
13-Jan-20 15:12 33.897281 -118.433444 160 2869ft 95kts
13-Jan-20 15:13 33.872997 -118.416391 152 3178ft 129kts
13-Jan-20 15:14 33.843646 -118.393495 149 3487ft 69kts
13-Jan-20 15:15 33.830103 -118.371325 115 4027ft 86kts
13-Jan-20 15:16 33.817938 -118.336596 114 4323ft 122kts
13-Jan-20 15:17 33.801458 -118.292750 142 4551ft 132kts
13-Jan-20 15:18 33.761887 -118.267717 157 4800ft 126kts
13-Jan-20 15:19 33.733660 -118.246063 146 5409ft 93kts
13-Jan-20 15:20 33.714329 -118.224831 145 6131ft 75kts
13-Jan-20 15:21 33.699098 -118.203685 131 6632ft 77kts
13-Jan-20 15:22 33.678034 -118.179328 146 6783ft 105kts
13-Jan-20 15:23 33.649984 -118.150948 146 7176ft 102kts
13-Jan-20 15:24 33.623163 -118.123211 146 7795ft 97kts
13-Jan-20 15:25 33.594813 -118.093922 146 7589ft 119kts
13-Jan-20 15:26 33.568176 -118.066413 146 7526ft 90kts
13-Jan-20 15:27 33.546624 -118.046499 136 7504ft 94kts
13-Jan-20 15:28 33.521703 -118.020889 145 7650ft 124kts
13-Jan-20 15:29 33.486745 -117.992154 143 7534ft 137kts
13-Jan-20 15:30 33.456273 -117.965185 143 7535ft 137kts
13-Jan-20 15:31 33.426193 -117.937388 142 7535ft 136kts
13-Jan-20 15:32 33.398413 -117.910022 139 7532ft 120kts
13-Jan-20 15:33 33.374385 -117.885167 139 7537ft 111kts
13-Jan-20 15:34 33.351368 -117.861402 139 7539ft 107kts
13-Jan-20 15:35 33.329036 -117.838404 139 7541ft 105kts
13-Jan-20 15:36 33.306741 -117.815505 138 7543ft 104kts
13-Jan-20 15:37 33.284895 -117.793121 138 7543ft 102kts
13-Jan-20 15:38 33.263415 -117.771123 138 7544ft 101kts
13-Jan-20 15:39 33.242090 -117.749227 138 7544ft 100kts
13-Jan-20 15:40 33.220953 -117.727463 138 7545ft 100kts
13-Jan-20 15:41 33.199797 -117.705618 138 7545ft 100kts
13-Jan-20 15:42 33.178579 -117.683646 138 7545ft 100kts
13-Jan-20 15:43 33.157437 -117.661691 138 7545ft 100kts
13-Jan-20 15:44 33.136385 -117.639766 138 7545ft 100kts
13-Jan-20 15:45 33.115256 -117.617699 137 7511ft 104kts
13-Jan-20 15:46 33.091270 -117.592630 137 7256ft 121kts
13-Jan-20 15:47 33.065352 -117.565317 137 6800ft 123kts
13-Jan-20 15:48 33.039874 -117.538223 137 6144ft 123kts
13-Jan-20 15:49 33.014529 -117.510987 137 5463ft 124kts
13-Jan-20 15:50 32.985196 -117.499786 125 4917ft 113kts
13-Jan-20 15:51 32.973891 -117.467865 113 4603ft 99kts
13-Jan-20 15:52 32.961644 -117.435696 113 4353ft 120kts
13-Jan-20 15:53 32.947433 -117.396774 128 4076ft 132kts
13-Jan-20 15:54 32.925285 -117.363167 128 4035ft 122kts
13-Jan-20 15:55 32.904474 -117.332612 136 4036ft 118kts
13-Jan-20 15:56 32.881073 -117.304548 136 3769ft 120kts
13-Jan-20 15:57 32.857260 -117.276130 136 3259ft 120kts
13-Jan-20 15:58 32.833514 -117.247737 136 2749ft 119kts
13-Jan-20 15:59 32.808684 -117.222090 156 2316ft 111kts
13-Jan-20 16:00 32.781642 -117.210887 173 1894ft 96kts
13-Jan-20 16:01 32.762361 -117.194313 101 1341ft 89kts
13-Jan-20 16:02 32.755870 -117.167860 116 1211ft 84kts
13-Jan-20 16:03 32.744173 -117.144409 125 1241ft 89kts
13-Jan-20 16:04 32.725816 -117.133958 232 1367ft 80kts
13-Jan-20 16:05 32.726469 -117.159524 283 513ft 70kts
13-Jan-20 16:06 32.730735 -117.177795 280 82ft 48kts
13-Jan-20 16:07 32.732848 -117.184339 20 15ft 0kts
13-Jan-20 16:08 32.732746 -117.181578 106 15ft 15kts
13-Jan-20 16:09 32.732764 -117.179187 41 19ft 4kts
13-Jan-20 16:10 32.733620 -117.179393 78 19ft 0kts
13-Jan-20 16:11 32.733620 -117.179393 78 19ft 0kts

Navigation Log

Ident Type
Flight plan parsing failed, navigation log unavailable